Time;durP1;ratioP1;P1;durP2;ratioP2;P2;SDS_P1;SDS_P2;PMS_P1;PMS_P2;Temp;Humidity;BMP_temperature;BMP_pressure;BME280_temperature;BME280_humidity;BME280_pressure;Samples;Min_cycle;Max_cycle;Signal;HPM_P1;HPM_P2
2023/07/25 00:00:31;;;;;;;9.45;2.53;;;15.50;99.90;;;;;;4913551;29;20064;-69
2023/07/25 00:02:57;;;;;;;9.40;3.00;;;15.60;99.90;;;;;;4917033;29;20044;-69
2023/07/25 00:05:22;;;;;;;7.85;2.40;;;15.40;99.90;;;;;;4901635;29;20087;-70
2023/07/25 00:07:48;;;;;;;12.77;2.92;;;15.50;99.90;;;;;;4917534;29;20519;-70
2023/07/25 00:10:13;;;;;;;7.05;2.25;;;15.30;99.90;;;;;;4917037;29;20040;-70
2023/07/25 00:12:39;;;;;;;9.23;2.83;;;15.30;99.90;;;;;;4917454;29;20511;-69
2023/07/25 00:15:05;;;;;;;10.50;3.03;;;15.50;99.90;;;;;;4917415;29;20265;-69
2023/07/25 00:17:31;;;;;;;6.28;2.60;;;15.40;99.90;;;;;;4917208;29;20036;-69
2023/07/25 00:19:57;;;;;;;7.43;2.65;;;15.40;99.90;;;;;;4916796;29;20172;-69
2023/07/25 00:22:22;;;;;;;7.35;2.35;;;15.40;99.90;;;;;;4916997;29;20390;-69
2023/07/25 00:24:48;;;;;;;10.32;2.38;;;15.40;99.90;;;;;;4917246;29;20571;-69
2023/07/25 00:27:14;;;;;;;6.47;2.70;;;;;;;;;;4917010;29;20050;-69
2023/07/25 00:29:40;;;;;;;7.07;2.40;;;15.50;99.90;;;;;;4917122;29;20426;-70
2023/07/25 00:32:06;;;;;;;6.57;2.53;;;15.40;99.90;;;;;;4917126;29;20043;-69
2023/07/25 00:34:32;;;;;;;9.40;2.97;;;15.40;99.90;;;;;;4918137;29;20050;-69
2023/07/25 00:36:58;;;;;;;13.07;4.15;;;15.60;99.90;;;;;;4916874;29;20036;-69
2023/07/25 00:39:23;;;;;;;6.50;2.67;;;15.60;99.90;;;;;;4916794;29;20122;-69
2023/07/25 00:41:49;;;;;;;16.02;5.18;;;15.70;99.90;;;;;;4901136;29;20128;-70
2023/07/25 00:44:14;;;;;;;7.97;2.50;;;15.70;99.90;;;;;;4916965;29;20046;-69
2023/07/25 00:46:41;;;;;;;10.82;2.47;;;15.70;99.90;;;;;;4901007;29;20033;-69
2023/07/25 00:49:07;;;;;;;11.75;2.80;;;15.80;99.90;;;;;;4916790;29;20452;-69
2023/07/25 00:51:33;;;;;;;10.95;3.13;;;15.60;99.90;;;;;;4916418;29;20044;-69
2023/07/25 00:54:00;;;;;;;6.75;2.30;;;;;;;;;;4916526;29;20130;-69
2023/07/25 00:56:26;;;;;;;13.07;2.60;;;15.50;99.90;;;;;;4916331;29;20044;-69
2023/07/25 00:58:52;;;;;;;7.00;2.70;;;15.50;99.90;;;;;;4900568;29;20040;-68
2023/07/25 01:01:18;;;;;;;9.00;2.55;;;15.50;99.90;;;;;;4916194;29;20036;-70
2023/07/25 01:03:43;;;;;;;14.85;2.70;;;15.50;99.90;;;;;;4916141;29;20071;-70
2023/07/25 01:06:14;;;;;;;5.80;2.58;;;15.30;99.90;;;;;;4916365;29;20079;-69
2023/07/25 01:08:48;;;;;;;8.38;3.08;;;15.30;99.90;;;;;;4916495;29;20075;-69
2023/07/25 01:11:14;;;;;;;9.13;2.80;;;15.50;99.90;;;;;;4915978;29;20103;-69
2023/07/25 01:13:40;;;;;;;11.35;2.92;;;15.40;99.90;;;;;;4917563;29;20044;-68
2023/07/25 01:16:07;;;;;;;13.73;2.97;;;15.30;99.90;;;;;;4916181;29;20048;-69
2023/07/25 01:18:33;;;;;;;11.38;2.13;;;15.30;99.90;;;;;;4916026;29;20048;-69
2023/07/25 01:20:59;;;;;;;9.57;2.58;;;15.30;99.90;;;;;;4900031;29;20043;-69
2023/07/25 01:23:26;;;;;;;7.95;3.58;;;15.40;99.90;;;;;;4917208;29;20500;-69
2023/07/25 01:25:52;;;;;;;6.72;1.92;;;15.20;99.90;;;;;;4917179;29;20044;-69
2023/07/25 01:28:17;;;;;;;7.53;2.28;;;15.20;99.90;;;;;;4917322;29;20039;-69
2023/07/25 01:30:44;;;;;;;7.18;2.25;;;15.20;99.90;;;;;;4915653;29;20045;-69
2023/07/25 01:33:09;;;;;;;10.40;3.20;;;15.30;99.90;;;;;;4915731;29;20551;-69
2023/07/25 01:35:35;;;;;;;8.25;2.47;;;15.20;99.90;;;;;;4915788;29;20048;-69
2023/07/25 01:38:01;;;;;;;7.30;2.20;;;15.30;99.90;;;;;;4900055;29;20126;-69
2023/07/25 01:40:26;;;;;;;10.15;2.38;;;15.30;99.90;;;;;;4915391;29;20036;-69
2023/07/25 01:42:52;;;;;;;6.57;2.72;;;15.40;99.90;;;;;;4915593;29;20048;-69
2023/07/25 01:45:17;;;;;;;9.52;2.90;;;15.40;99.90;;;;;;4900227;29;20071;-69
2023/07/25 01:47:43;;;;;;;10.30;2.92;;;15.20;99.90;;;;;;4915568;29;20123;-69
2023/07/25 01:50:09;;;;;;;9.27;2.35;;;15.30;99.90;;;;;;4915311;29;20048;-69
2023/07/25 01:52:34;;;;;;;7.28;2.65;;;15.40;99.90;;;;;;4915437;29;20040;-69
2023/07/25 01:55:00;;;;;;;7.72;2.53;;;15.20;99.90;;;;;;4915278;29;20072;-69
2023/07/25 01:57:25;;;;;;;6.10;2.38;;;15.40;99.90;;;;;;4900434;29;20051;-69
2023/07/25 01:59:51;;;;;;;6.45;2.10;;;15.40;99.90;;;;;;4915191;29;20551;-69
2023/07/25 02:02:17;;;;;;;8.55;2.53;;;15.30;99.90;;;;;;4899424;29;20095;-69
2023/07/25 02:04:43;;;;;;;11.30;2.53;;;15.30;99.90;;;;;;4915257;29;20046;-69
2023/07/25 02:07:09;;;;;;;5.88;1.75;;;15.30;99.90;;;;;;4915304;29;20572;-69
2023/07/25 02:09:34;;;;;;;15.32;3.55;;;15.20;99.90;;;;;;4914853;29;20044;-69
2023/07/25 02:12:01;;;;;;;7.30;2.83;;;15.20;99.90;;;;;;4915344;29;20052;-69
2023/07/25 02:14:26;;;;;;;5.95;2.40;;;15.30;99.90;;;;;;4915055;29;20083;-69
2023/07/25 02:16:52;;;;;;;6.15;2.40;;;15.40;99.90;;;;;;4915019;29;20075;-69
2023/07/25 02:19:18;;;;;;;6.78;2.75;;;15.30;99.90;;;;;;4914998;29;20516;-69
2023/07/25 02:21:43;;;;;;;8.18;2.50;;;15.30;99.90;;;;;;4914977;29;20067;-68
2023/07/25 02:24:09;;;;;;;5.63;2.28;;;;;;;;;;4914313;29;20040;-69
2023/07/25 02:26:35;;;;;;;10.32;2.72;;;15.30;99.90;;;;;;4914990;29;20131;-71
2023/07/25 02:29:01;;;;;;;11.20;2.35;;;15.00;99.90;;;;;;4915022;29;20205;-69
2023/07/25 02:31:26;;;;;;;8.82;2.25;;;15.20;99.90;;;;;;4914639;29;20059;-69
2023/07/25 02:33:52;;;;;;;11.18;3.53;;;15.30;99.90;;;;;;4914940;29;20385;-69
2023/07/25 02:36:18;;;;;;;10.35;2.85;;;;;;;;;;4915984;29;20044;-70
2023/07/25 02:38:43;;;;;;;11.10;2.55;;;15.30;99.90;;;;;;4914675;29;20048;-69
2023/07/25 02:41:09;;;;;;;10.93;2.78;;;15.20;99.90;;;;;;4914516;29;20040;-69
2023/07/25 02:43:35;;;;;;;8.85;2.95;;;15.30;99.90;;;;;;4914870;29;20048;-69
2023/07/25 02:46:00;;;;;;;13.07;2.88;;;15.20;99.90;;;;;;4914648;29;20087;-69
2023/07/25 02:48:26;;;;;;;10.95;2.80;;;15.40;99.90;;;;;;4914602;29;20043;-69
2023/07/25 02:50:52;;;;;;;12.65;2.65;;;;;;;;;;4914318;29;20036;-69
2023/07/25 02:53:17;;;;;;;10.93;2.97;;;15.20;99.90;;;;;;4914354;29;20099;-69
2023/07/25 02:55:43;;;;;;;7.55;2.45;;;15.10;99.90;;;;;;4914450;29;20044;-69
2023/07/25 02:58:09;;;;;;;13.50;3.38;;;14.90;99.90;;;;;;4914441;29;20123;-68
2023/07/25 03:00:34;;;;;;;7.20;2.72;;;15.10;99.90;;;;;;4898354;29;20115;-69
2023/07/25 03:03:00;;;;;;;9.18;2.92;;;15.00;99.90;;;;;;4914409;29;20051;-69
2023/07/25 03:05:27;;;;;;;7.40;2.55;;;15.00;99.90;;;;;;4914319;29;20086;-69
2023/07/25 03:07:53;;;;;;;7.47;2.78;;;15.10;99.90;;;;;;4898474;29;20131;-70
2023/07/25 03:10:18;;;;;;;11.82;2.53;;;14.80;99.90;;;;;;4914501;29;20133;-69
2023/07/25 03:12:44;;;;;;;8.25;2.97;;;15.00;99.90;;;;;;4918008;29;20040;-69
2023/07/25 03:15:10;;;;;;;9.40;2.42;;;14.80;99.90;;;;;;4914184;29;20397;-69
2023/07/25 03:17:36;;;;;;;8.00;2.40;;;;;;;;;;4914267;29;20091;-70
2023/07/25 03:20:02;;;;;;;9.90;2.58;;;15.00;99.90;;;;;;4914132;29;20098;-69
2023/07/25 03:22:27;;;;;;;9.07;2.58;;;14.90;99.90;;;;;;4898275;29;20046;-69
2023/07/25 03:24:53;;;;;;;10.63;2.38;;;14.90;99.90;;;;;;4914320;29;20119;-69
2023/07/25 03:27:19;;;;;;;7.50;2.45;;;14.90;99.90;;;;;;4914239;29;20040;-69
2023/07/25 03:29:45;;;;;;;11.18;2.33;;;14.80;99.90;;;;;;4913909;29;20099;-70
2023/07/25 03:32:11;;;;;;;10.05;2.10;;;;;;;;;;4898368;29;20040;-69
2023/07/25 03:34:36;;;;;;;7.30;2.38;;;14.70;99.90;;;;;;4915285;29;20052;-69
2023/07/25 03:37:02;;;;;;;9.40;2.28;;;14.80;99.90;;;;;;4917398;29;20115;-69
2023/07/25 03:39:28;;;;;;;10.75;2.72;;;;;;;;;;4917816;29;20427;-69
2023/07/25 03:41:54;;;;;;;4.95;2.05;;;14.50;99.90;;;;;;4917732;29;20580;-69
2023/07/25 03:44:20;;;;;;;6.13;1.88;;;14.60;99.90;;;;;;4917760;29;20123;-69
2023/07/25 03:46:46;;;;;;;14.63;2.75;;;14.50;99.90;;;;;;4901620;29;20071;-69
2023/07/25 03:49:12;;;;;;;8.18;2.13;;;14.70;99.90;;;;;;4917691;29;20082;-69
2023/07/25 03:51:38;;;;;;;8.25;2.95;;;14.50;99.90;;;;;;4917604;29;20078;-69
2023/07/25 03:54:05;;;;;;;7.35;2.63;;;14.50;99.90;;;;;;4917626;29;20127;-69
2023/07/25 03:56:31;;;;;;;4.25;1.80;;;14.60;99.90;;;;;;4917550;29;20048;-69
2023/07/25 03:58:57;;;;;;;9.10;2.35;;;;;;;;;;4917370;29;20051;-69
2023/07/25 04:01:23;;;;;;;8.90;2.40;;;;;;;;;;4917234;29;20051;-69
2023/07/25 04:03:48;;;;;;;5.70;1.60;;;14.50;99.90;;;;;;4917979;29;20044;-69
2023/07/25 04:06:14;;;;;;;8.82;2.83;;;14.40;99.90;;;;;;4918977;29;20047;-69
2023/07/25 04:08:40;;;;;;;7.57;2.20;;;;;;;;;;4917311;29;20044;-69
2023/07/25 04:11:06;;;;;;;12.20;3.45;;;;;;;;;;4917051;29;20562;-69
2023/07/25 04:13:32;;;;;;;9.38;2.10;;;;;;;;;;4901345;29;20550;-69
2023/07/25 04:15:58;;;;;;;8.07;2.60;;;14.60;99.90;;;;;;4917174;29;20052;-69
2023/07/25 04:18:23;;;;;;;7.13;2.28;;;14.60;99.90;;;;;;4917070;29;20048;-68
2023/07/25 04:20:49;;;;;;;12.50;2.30;;;14.60;99.90;;;;;;4916873;29;20040;-69
2023/07/25 04:23:15;;;;;;;9.07;2.20;;;14.70;99.90;;;;;;4916978;29;20044;-69
2023/07/25 04:25:41;;;;;;;9.85;2.03;;;14.60;99.90;;;;;;4901418;29;20048;-69
2023/07/25 04:28:07;;;;;;;8.70;3.08;;;14.70;99.90;;;;;;4917133;29;20048;-69
2023/07/25 04:30:33;;;;;;;13.38;2.60;;;;;;;;;;4916720;29;20044;-69
2023/07/25 04:32:59;;;;;;;8.50;2.97;;;14.80;99.90;;;;;;4917102;29;20107;-69
2023/07/25 04:35:24;;;;;;;7.57;2.42;;;14.80;99.90;;;;;;4916835;29;20044;-69
2023/07/25 04:37:50;;;;;;;11.73;2.85;;;14.80;99.90;;;;;;4917165;29;20040;-69
2023/07/25 04:40:16;;;;;;;11.30;2.60;;;14.60;99.90;;;;;;4919706;29;20043;-69
2023/07/25 04:42:42;;;;;;;10.77;2.60;;;;;;;;;;4918159;29;20498;-69
2023/07/25 04:45:08;;;;;;;8.48;2.58;;;14.50;99.90;;;;;;4916760;29;20048;-69
2023/07/25 04:47:34;;;;;;;15.70;2.35;;;14.80;99.90;;;;;;4915994;29;20127;-69
2023/07/25 04:50:00;;;;;;;7.07;2.20;;;;;;;;;;4916399;29;20148;-70
2023/07/25 04:52:25;;;;;;;9.60;2.35;;;14.70;99.90;;;;;;4916615;29;20044;-69
2023/07/25 04:54:55;;;;;;;9.80;2.22;;;14.90;99.90;;;;;;4916638;29;20043;-69
2023/07/25 04:57:21;;;;;;;10.80;3.05;;;14.80;99.90;;;;;;4916911;29;20040;-69
2023/07/25 04:59:47;;;;;;;9.30;2.35;;;15.00;99.90;;;;;;4916451;29;20040;-69
2023/07/25 05:02:13;;;;;;;10.60;2.63;;;15.10;99.90;;;;;;4916195;29;20084;-69
2023/07/25 05:04:39;;;;;;;6.70;2.22;;;;;;;;;;4916388;29;20036;-68
2023/07/25 05:07:04;;;;;;;5.43;1.83;;;15.30;99.90;;;;;;4916375;29;20119;-69
2023/07/25 05:09:30;;;;;;;8.52;2.03;;;15.00;99.90;;;;;;4915922;29;20087;-67
2023/07/25 05:11:56;;;;;;;8.55;2.17;;;15.00;99.90;;;;;;4916408;29;20139;-69
2023/07/25 05:14:21;;;;;;;6.05;1.77;;;15.00;99.90;;;;;;4916079;29;20056;-69
2023/07/25 05:16:47;;;;;;;19.20;2.65;;;15.20;99.90;;;;;;4916391;29;20507;-69
2023/07/25 05:19:12;;;;;;;14.55;2.58;;;15.20;99.90;;;;;;4916042;29;20047;-69
2023/07/25 05:21:38;;;;;;;9.38;2.60;;;15.30;99.90;;;;;;4900135;29;20067;-69
2023/07/25 05:24:04;;;;;;;8.57;2.50;;;15.30;99.90;;;;;;4915966;29;20036;-69
2023/07/25 05:26:29;;;;;;;9.50;2.08;;;15.30;99.90;;;;;;4915939;29;20047;-69
2023/07/25 05:28:55;;;;;;;11.10;2.38;;;;;;;;;;4916114;29;20052;-69
2023/07/25 05:31:21;;;;;;;9.05;2.10;;;;;;;;;;4915958;29;20047;-70
2023/07/25 05:33:47;;;;;;;10.20;1.95;;;15.10;99.90;;;;;;4900074;29;20044;-69
2023/07/25 05:36:13;;;;;;;6.18;2.03;;;15.50;99.90;;;;;;4900060;29;20059;-69
2023/07/25 05:38:38;;;;;;;7.68;1.63;;;15.30;99.90;;;;;;4915617;29;20091;-69
2023/07/25 05:41:04;;;;;;;8.52;2.22;;;;;;;;;;4899798;29;20059;-69
2023/07/25 05:43:30;;;;;;;7.47;1.65;;;15.50;99.90;;;;;;4899825;29;20058;-69
2023/07/25 05:45:55;;;;;;;12.50;2.65;;;15.70;99.90;;;;;;4915590;29;20048;-69
2023/07/25 05:48:21;;;;;;;4.95;1.70;;;15.60;99.90;;;;;;4915557;29;20127;-69
2023/07/25 05:50:53;;;;;;;6.72;2.53;;;15.70;99.90;;;;;;4915294;29;20047;-69
2023/07/25 05:53:19;;;;;;;5.45;1.73;;;15.70;99.90;;;;;;4915656;29;20456;-68
2023/07/25 05:55:45;;;;;;;5.18;1.30;;;15.80;99.90;;;;;;4915413;29;20131;-69
2023/07/25 05:58:14;;;;;;;8.05;1.45;;;15.90;99.90;;;;;;4915562;29;20119;-68
2023/07/25 06:00:40;;;;;;;6.75;1.25;;;16.00;99.90;;;;;;4915066;29;20036;-70
2023/07/25 06:03:06;;;;;;;4.97;1.23;;;16.10;99.90;;;;;;4899710;29;20066;-69
2023/07/25 06:05:34;;;;;;;6.13;1.00;;;16.00;99.90;;;;;;4915570;29;20068;-69
2023/07/25 06:07:59;;;;;;;5.32;1.10;;;16.10;99.90;;;;;;4915455;29;20043;-69
2023/07/25 06:10:25;;;;;;;13.32;1.42;;;16.20;99.90;;;;;;4915262;29;20534;-69
2023/07/25 06:12:50;;;;;;;4.47;0.90;;;16.50;99.90;;;;;;4915121;29;20036;-69
2023/07/25 06:15:16;;;;;;;6.03;1.98;;;16.40;99.90;;;;;;4915229;29;20104;-69
2023/07/25 06:17:42;;;;;;;2.97;1.50;;;16.40;99.90;;;;;;4915309;29;20492;-69
2023/07/25 06:20:08;;;;;;;5.03;1.00;;;16.40;99.90;;;;;;4915071;29;20519;-70
2023/07/25 06:22:34;;;;;;;7.80;1.83;;;16.50;99.90;;;;;;4914978;29;20044;-69
2023/07/25 06:25:01;;;;;;;5.47;1.23;;;16.70;99.90;;;;;;4914900;29;20100;-69
2023/07/25 06:27:27;;;;;;;5.22;1.23;;;16.90;99.90;;;;;;4914966;29;20130;-69
2023/07/25 06:29:52;;;;;;;1.92;0.80;;;16.90;99.90;;;;;;4915894;29;20576;-69
2023/07/25 06:32:18;;;;;;;4.63;0.80;;;;;;;;;;4914763;29;20071;-69
2023/07/25 06:34:44;;;;;;;5.57;1.17;;;16.90;99.90;;;;;;4914603;29;20051;-70
2023/07/25 06:37:09;;;;;;;3.83;0.98;;;16.80;99.90;;;;;;4914801;29;20036;-69
2023/07/25 06:39:35;;;;;;;6.55;1.02;;;16.80;99.90;;;;;;4914532;29;20147;-69
2023/07/25 06:42:00;;;;;;;5.50;1.70;;;17.10;99.90;;;;;;4914584;29;20043;-69
2023/07/25 06:44:26;;;;;;;4.28;1.45;;;17.20;99.90;;;;;;4900350;29;20551;-69
2023/07/25 06:46:52;;;;;;;2.83;0.90;;;17.20;99.90;;;;;;4915839;29;20044;-69
2023/07/25 06:49:17;;;;;;;3.17;0.75;;;17.20;99.90;;;;;;4915319;29;20433;-69
2023/07/25 06:51:43;;;;;;;8.13;1.00;;;17.40;99.90;;;;;;4915476;29;20044;-70
2023/07/25 06:54:08;;;;;;;4.07;1.25;;;17.60;99.90;;;;;;4915442;29;20040;-70
2023/07/25 06:56:34;;;;;;;6.07;1.40;;;17.60;99.90;;;;;;4915173;29;20048;-69
2023/07/25 06:59:00;;;;;;;6.93;0.90;;;17.70;99.90;;;;;;4916297;29;20044;-70
2023/07/25 07:01:27;;;;;;;4.57;1.15;;;;;;;;;;4899222;29;20044;-70
2023/07/25 07:03:54;;;;;;;6.22;1.35;;;18.00;99.90;;;;;;4899208;29;20046;-69
2023/07/25 07:06:20;;;;;;;7.05;1.13;;;18.10;99.90;;;;;;4914895;29;20427;-70
2023/07/25 07:08:46;;;;;;;7.57;1.33;;;18.10;99.90;;;;;;4914783;29;20040;-69
2023/07/25 07:11:12;;;;;;;7.63;1.10;;;18.20;99.90;;;;;;4914539;29;20044;-70
2023/07/25 07:13:37;;;;;;;5.93;1.60;;;18.20;99.90;;;;;;4915047;29;20048;-69
2023/07/25 07:16:03;;;;;;;6.00;1.75;;;18.20;99.90;;;;;;4915195;29;20055;-70
2023/07/25 07:18:29;;;;;;;6.97;1.95;;;17.80;99.90;;;;;;4916439;29;20043;-69
2023/07/25 07:20:54;;;;;;;3.10;0.75;;;17.30;99.90;;;;;;4914621;29;20036;-70
2023/07/25 07:23:20;;;;;;;4.75;1.27;;;17.50;99.90;;;;;;4914848;29;20063;-69
2023/07/25 07:25:46;;;;;;;3.70;0.75;;;17.60;99.90;;;;;;4915120;29;20393;-70
2023/07/25 07:28:12;;;;;;;5.60;2.50;;;17.70;99.90;;;;;;4915062;29;20036;-70
2023/07/25 07:30:38;;;;;;;4.57;1.27;;;17.80;99.90;;;;;;4914700;29;20055;-70
2023/07/25 07:33:03;;;;;;;6.88;1.27;;;18.10;99.90;;;;;;4914952;29;20131;-70
2023/07/25 07:35:29;;;;;;;7.90;1.42;;;18.30;99.90;;;;;;4914780;29;20474;-70
2023/07/25 07:37:54;;;;;;;5.15;1.40;;;18.30;99.90;;;;;;4914936;29;20040;-69
2023/07/25 07:40:20;;;;;;;4.65;1.38;;;18.50;99.90;;;;;;4915844;29;20044;-69
2023/07/25 07:42:46;;;;;;;3.47;1.50;;;18.10;99.90;;;;;;4914604;29;20515;-70
2023/07/25 07:45:11;;;;;;;5.00;1.77;;;18.40;99.90;;;;;;4914916;29;20056;-70
2023/07/25 07:47:37;;;;;;;2.90;1.33;;;18.60;99.90;;;;;;4915691;29;20052;-69
2023/07/25 07:50:03;;;;;;;3.50;1.15;;;18.40;99.90;;;;;;4914506;29;20044;-70
2023/07/25 07:52:28;;;;;;;2.60;0.80;;;18.40;99.90;;;;;;4914828;29;20131;-69
2023/07/25 07:54:55;;;;;;;3.00;0.98;;;18.80;99.90;;;;;;4914875;29;20412;-70
2023/07/25 07:57:20;;;;;;;4.20;1.50;;;19.30;99.90;;;;;;4916475;29;20055;-70
2023/07/25 07:59:46;;;;;;;4.55;1.75;;;18.30;99.90;;;;;;4915783;29;20037;-70
2023/07/25 08:02:11;;;;;;;4.70;1.35;;;18.60;99.90;;;;;;4914880;29;20107;-70
2023/07/25 08:04:37;;;;;;;7.97;1.20;;;18.60;99.90;;;;;;4899081;29;20040;-70
2023/07/25 08:07:03;;;;;;;3.42;1.05;;;18.60;99.90;;;;;;4916075;29;20091;-70
2023/07/25 08:09:29;;;;;;;3.72;1.50;;;18.70;99.90;;;;;;4914654;29;20044;-70
2023/07/25 08:11:54;;;;;;;3.63;0.77;;;19.00;99.90;;;;;;4914779;29;20453;-71
2023/07/25 08:14:20;;;;;;;7.90;1.10;;;19.20;99.90;;;;;;4914606;29;20036;-70
2023/07/25 08:16:45;;;;;;;4.03;1.05;;;19.10;99.90;;;;;;4914553;29;20087;-70
2023/07/25 08:19:11;;;;;;;2.63;0.90;;;19.90;99.90;;;;;;4915669;29;20043;-70
2023/07/25 08:21:37;;;;;;;3.38;1.38;;;19.70;99.90;;;;;;4916589;29;20077;-70
2023/07/25 08:24:02;;;;;;;5.55;1.08;;;19.60;99.90;;;;;;4920643;29;20071;-70
2023/07/25 08:26:28;;;;;;;3.75;1.02;;;19.20;99.90;;;;;;4919347;29;20497;-70
2023/07/25 08:28:53;;;;;;;5.55;1.70;;;19.00;99.90;;;;;;4917742;29;20040;-70
2023/07/25 08:31:19;;;;;;;3.15;1.00;;;18.80;99.90;;;;;;4901958;29;20051;-71
2023/07/25 08:33:45;;;;;;;5.55;1.40;;;19.20;99.90;;;;;;4918671;29;20056;-70
2023/07/25 08:36:11;;;;;;;2.42;0.88;;;19.50;99.90;;;;;;4902001;29;20048;-69
2023/07/25 08:38:37;;;;;;;5.30;1.38;;;19.20;99.90;;;;;;4901952;29;20127;-70
2023/07/25 08:41:15;;;;;;;3.13;1.20;;;20.20;99.90;;;;;;4901964;29;20079;-70
2023/07/25 08:43:43;;;;;;;5.35;1.38;;;19.90;99.90;;;;;;4919679;29;20047;-70
2023/07/25 08:46:11;;;;;;;7.15;1.00;;;19.60;99.90;;;;;;4918191;29;20051;-70
2023/07/25 08:48:41;;;;;;;2.97;1.50;;;19.50;99.90;;;;;;4919864;29;20044;-70
2023/07/25 08:51:16;;;;;;;2.63;1.00;;;19.30;99.90;;;;;;4901500;29;20082;-71
2023/07/25 08:54:01;;;;;;;10.13;1.10;;;19.00;99.90;;;;;;4917725;29;20472;-71
2023/07/25 08:56:28;;;;;;;2.40;0.70;;;19.10;99.90;;;;;;4917604;29;20040;-70
2023/07/25 08:58:54;;;;;;;4.82;1.23;;;19.80;99.90;;;;;;4917513;29;20051;-70
2023/07/25 09:01:21;;;;;;;3.30;1.48;;;20.60;99.90;;;;;;4919648;29;20123;-70
2023/07/25 09:03:48;;;;;;;6.15;1.98;;;19.80;99.90;;;;;;4918758;29;20043;-71
2023/07/25 09:06:14;;;;;;;5.35;1.58;;;19.50;99.90;;;;;;4901904;29;20040;-70
2023/07/25 09:08:40;;;;;;;3.65;1.88;;;19.30;99.90;;;;;;4919210;29;20497;-71
2023/07/25 09:11:08;;;;;;;3.00;0.95;;;19.20;99.90;;;;;;4918010;29;20042;-70
2023/07/25 09:13:34;;;;;;;5.28;1.45;;;19.40;99.90;;;;;;4917929;29;20051;-70
2023/07/25 09:16:00;;;;;;;8.90;1.60;;;19.20;99.90;;;;;;4901431;29;20055;-70
2023/07/25 09:18:26;;;;;;;4.97;1.63;;;19.60;99.90;;;;;;4901382;29;20128;-71
2023/07/25 09:20:51;;;;;;;6.38;1.40;;;19.50;99.90;;;;;;4901409;29;20051;-71
2023/07/25 09:23:21;;;;;;;2.08;1.00;;;19.60;99.90;;;;;;4917409;29;20044;-70
2023/07/25 09:25:47;;;;;;;5.18;1.63;;;20.00;99.90;;;;;;4917057;29;20042;-71
2023/07/25 09:28:13;;;;;;;9.48;1.38;;;19.40;99.90;;;;;;4916987;29;20047;-68
2023/07/25 09:30:47;;;;;;;6.10;1.10;;;19.60;99.90;;;;;;4916500;29;20048;-69
2023/07/25 09:33:25;;;;;;;7.88;1.38;;;19.20;99.90;;;;;;4918433;29;20461;-68
2023/07/25 09:35:51;;;;;;;2.45;0.77;;;19.40;99.90;;;;;;4917146;29;20127;-70
2023/07/25 09:38:17;;;;;;;3.00;1.52;;;19.10;99.90;;;;;;4917458;29;20063;-70
2023/07/25 09:40:42;;;;;;;5.35;1.63;;;19.60;99.90;;;;;;4916911;29;20500;-71
2023/07/25 09:43:08;;;;;;;6.60;1.45;;;20.00;99.90;;;;;;4916912;29;20036;-71
2023/07/25 09:45:37;;;;;;;4.10;1.65;;;20.00;99.90;;;;;;4917534;29;20123;-70
2023/07/25 09:48:03;;;;;;;4.82;1.30;;;19.90;99.90;;;;;;4916853;29;20048;-70
2023/07/25 09:50:33;;;;;;;9.90;1.48;;;20.00;99.90;;;;;;4916327;29;20532;-70
2023/07/25 09:53:03;;;;;;;4.28;1.20;;;21.10;99.90;;;;;;4901262;29;20176;-70
2023/07/25 09:55:29;;;;;;;6.43;0.70;;;20.40;99.90;;;;;;4916365;29;20071;-71
2023/07/25 09:57:55;;;;;;;7.50;1.40;;;20.30;99.90;;;;;;4901139;29;20488;-70
2023/07/25 10:00:21;;;;;;;3.15;1.58;;;20.10;99.90;;;;;;4916253;29;20496;-70
2023/07/25 10:11:05;;;;;;;2.55;0.90;;;20.00;99.90;;;;;;4809752;29;20051;-76
2023/07/25 10:18:12;;;;;;;3.70;1.17;;;19.90;99.90;;;;;;4725007;30;20064;-76
2023/07/25 10:21:47;;;;;;;;;;;;;;;;;;;;;
2023/07/25 10:38:26;;;;;;;4.57;1.20;;;20.10;99.90;;;;;;4732083;30;20114;-79
2023/07/25 10:45:15;;;;;;;;;;;;;;;;;;;;;
2023/07/25 10:53:03;;;;;;;;;;;19.70;99.90;;;;;;4833510;29;20099;-76
2023/07/25 11:00:31;;;;;;;;;;;;;;;;;;;;;
2023/07/25 11:04:25;;;;;;;;;;;;;;;;;;;;;
2023/07/25 11:15:20;;;;;;;5.05;2.15;;;21.20;99.90;;;;;;4653298;30;20101;-77
2023/07/25 11:18:55;;;;;;;;;;;;;;;;;;;;;
2023/07/25 11:29:42;;;;;;;;;;;;;;;;;;;;;
2023/07/25 11:40:37;;;;;;;5.47;0.90;;;19.90;99.90;;;;;;3121660;23;20059;-76
2023/07/25 11:46:21;;;;;;;;;;;;;;;;;;;;;
2023/07/25 11:56:58;;;;;;;;;;;20.20;99.90;;;;;;4831277;23;20047;-70
2023/07/25 11:59:23;;;;;;;3.33;1.33;;;20.00;99.90;;;;;;4956638;29;19933;-70
2023/07/25 12:01:49;;;;;;;5.00;1.25;;;19.70;99.90;;;;;;4938329;29;20031;-69
2023/07/25 12:04:16;;;;;;;4.32;1.88;;;20.00;99.90;;;;;;4939871;29;20090;-70
2023/07/25 12:06:41;;;;;;;4.15;1.38;;;19.60;99.90;;;;;;4936477;29;20067;-71
2023/07/25 12:09:07;;;;;;;4.35;1.63;;;19.60;99.90;;;;;;4920803;29;20460;-70
2023/07/25 12:11:43;;;;;;;4.57;1.00;;;19.90;99.90;;;;;;4920314;29;20039;-70
2023/07/25 12:14:13;;;;;;;5.50;1.30;;;19.00;99.90;;;;;;4920484;29;20122;-70
2023/07/25 12:16:44;;;;;;;4.68;0.95;;;18.60;99.90;;;;;;4904534;29;20036;-70
2023/07/25 12:19:12;;;;;;;3.42;1.20;;;18.30;99.90;;;;;;4920290;29;20067;-71
2023/07/25 12:21:40;;;;;;;2.38;1.00;;;18.80;99.90;;;;;;4937568;29;20401;-70
2023/07/25 12:24:10;;;;;;;3.30;1.50;;;17.40;99.90;;;;;;4920321;29;20054;-70
2023/07/25 12:26:47;;;;;;;5.97;1.00;;;17.90;99.90;;;;;;4937266;29;20052;-70
2023/07/25 12:29:18;;;;;;;5.93;1.27;;;18.00;99.90;;;;;;4904398;29;20079;-70
2023/07/25 12:31:44;;;;;;;3.75;1.15;;;18.70;99.90;;;;;;4920194;29;20733;-70
2023/07/25 12:34:10;;;;;;;7.35;1.50;;;18.50;99.90;;;;;;4920096;29;20126;-70
2023/07/25 12:36:37;;;;;;;3.22;1.48;;;19.20;99.90;;;;;;4919981;29;20447;-70
2023/07/25 12:39:03;;;;;;;4.15;1.30;;;18.70;99.90;;;;;;4919950;29;20432;-71
2023/07/25 12:41:28;;;;;;;3.72;1.02;;;19.20;99.90;;;;;;4920096;29;20516;-70
2023/07/25 12:43:54;;;;;;;2.78;0.90;;;18.90;99.90;;;;;;4919997;29;20071;-70
2023/07/25 12:46:19;;;;;;;3.10;1.20;;;19.50;99.90;;;;;;4919803;29;20052;-70
2023/07/25 12:48:45;;;;;;;3.70;1.23;;;19.60;99.90;;;;;;4920199;29;20499;-71
2023/07/25 12:51:10;;;;;;;6.05;1.15;;;19.40;99.90;;;;;;4921943;29;20040;-70
2023/07/25 12:53:36;;;;;;;3.50;0.65;;;19.70;99.90;;;;;;4920485;29;20050;-70
2023/07/25 12:56:02;;;;;;;3.15;1.23;;;19.50;99.90;;;;;;4936955;29;20055;-71
2023/07/25 12:58:28;;;;;;;2.88;1.10;;;19.50;99.90;;;;;;4919693;29;20158;-70
2023/07/25 13:00:54;;;;;;;4.57;1.95;;;19.60;99.90;;;;;;4919423;29;20059;-70
2023/07/25 13:03:27;;;;;;;5.63;1.35;;;19.10;99.90;;;;;;4919773;29;20504;-69
2023/07/25 13:05:53;;;;;;;8.85;1.95;;;18.40;99.90;;;;;;4936840;29;20051;-70
2023/07/25 13:08:20;;;;;;;2.63;1.13;;;18.70;99.90;;;;;;4919470;29;20448;-70
2023/07/25 13:10:46;;;;;;;6.35;1.55;;;18.50;99.90;;;;;;4919240;29;20091;-70
2023/07/25 13:13:13;;;;;;;4.68;1.10;;;18.60;99.90;;;;;;4919503;29;20039;-70
2023/07/25 13:15:41;;;;;;;2.58;1.02;;;18.50;99.90;;;;;;4918919;29;20040;-70
2023/07/25 13:18:06;;;;;;;6.90;1.38;;;18.30;99.90;;;;;;4918420;29;20106;-70
2023/07/25 13:20:32;;;;;;;2.90;1.40;;;18.10;99.90;;;;;;4903088;29;20047;-70
2023/07/25 13:22:58;;;;;;;3.67;1.73;;;18.30;99.90;;;;;;4919292;29;20184;-70
2023/07/25 13:25:23;;;;;;;8.40;2.10;;;18.60;99.90;;;;;;4921964;29;20051;-69
2023/07/25 13:27:49;;;;;;;5.65;2.42;;;18.70;99.90;;;;;;4914636;29;20032;-70
2023/07/25 13:30:15;;;;;;;4.80;1.95;;;18.80;99.90;;;;;;4930128;29;20039;-69
2023/07/25 13:32:41;;;;;;;6.93;1.15;;;19.20;99.90;;;;;;4937071;29;20122;-69
2023/07/25 13:35:07;;;;;;;4.00;0.60;;;19.10;99.90;;;;;;4938621;29;20035;-69
2023/07/25 13:37:32;;;;;;;2.25;0.63;;;19.10;99.90;;;;;;4938518;29;20499;-69
2023/07/25 13:39:58;;;;;;;2.65;1.00;;;18.80;99.90;;;;;;4938345;29;20039;-69
2023/07/25 13:42:25;;;;;;;2.40;1.00;;;18.70;99.90;;;;;;4937161;29;20031;-69
2023/07/25 13:44:51;;;;;;;4.32;1.65;;;19.40;99.90;;;;;;4954579;29;20043;-70
2023/07/25 13:47:16;;;;;;;6.28;1.60;;;19.50;99.90;;;;;;4919228;29;20384;-69
2023/07/25 13:49:42;;;;;;;4.32;1.50;;;18.90;99.90;;;;;;4918979;29;20040;-69
2023/07/25 13:52:08;;;;;;;3.30;1.35;;;19.10;99.90;;;;;;4919541;29;20036;-69
2023/07/25 13:54:34;;;;;;;3.72;1.20;;;19.40;99.90;;;;;;4919168;29;20036;-70
2023/07/25 13:57:00;;;;;;;5.32;1.10;;;19.30;99.90;;;;;;4919306;29;20463;-69
2023/07/25 13:59:26;;;;;;;1.52;0.98;;;19.80;99.90;;;;;;4919111;29;20074;-69
2023/07/25 14:01:52;;;;;;;2.92;1.38;;;19.90;99.90;;;;;;4936007;29;20535;-69
2023/07/25 14:04:19;;;;;;;5.28;1.95;;;19.90;99.90;;;;;;4918838;29;20040;-69
2023/07/25 14:06:50;;;;;;;4.93;1.60;;;19.80;99.90;;;;;;4918354;29;20051;-69
2023/07/25 14:09:16;;;;;;;5.85;1.67;;;19.30;99.90;;;;;;4917373;29;20160;-69
2023/07/25 14:11:42;;;;;;;2.45;1.50;;;19.20;99.90;;;;;;4935746;29;20126;-69
2023/07/25 14:14:08;;;;;;;2.08;1.27;;;19.30;99.90;;;;;;4902872;29;20047;-70
2023/07/25 14:16:33;;;;;;;3.85;1.60;;;19.30;99.90;;;;;;4918684;29;20119;-69